Terminal Aerodrome Forecast
Issued by NWS Wilmington, OH

Current Version | Previous Version | Text Only | Print | Product List | Glossary On
Versions: 1 2 3 4 5 6 7 8 9 10 11 12 13 14 15 16 17 18 19 20 21 22 23 24 25 26
000 FTUS41 KILN 210500 TAFILN TAF KILN 210538Z 2106/2206 25010KT P6SM BKN090 FM211000 22010KT P6SM SKC FM211300 23016G28KT P6SM SKC FM211600 25025G38KT P6SM BKN080 FM220000 24012G18KT P6SM SCT080 FM220400 22010KT P6SM VCSH BKN060=

USA.gov is the U.S. government's official web portal to all federal, state and local government web resources and services.